Terminal Aerodrome Forecast
Issued by NWS Louisville, KY

Home | Current Version | Previous Version | Text Only | Print | Product List | Glossary On
Versions: 1 2 3 4 5 6 7 8 9 10 11 12 13 14 15 16
000
FTUS43 KLMK 262300
TAFSDF
TAF
KSDF 262322Z 2700/2806 VRB03KT P6SM OVC130
     FM270400 33007KT P6SM VCSH OVC045
     FM271300 30010KT P6SM SCT035
     FM272300 28005KT P6SM SKC=

USA.gov is the U.S. government's official web portal to all federal, state and local government web resources and services.